Time;durP1;ratioP1;P1;durP2;ratioP2;P2;SDS_P1;SDS_P2;PMS_P1;PMS_P2;Temp;Humidity;BMP_temperature;BMP_pressure;BME280_temperature;BME280_humidity;BME280_pressure;Samples;Min_cycle;Max_cycle;Signal;HPM_P1;HPM_P2
2023/07/16 00:02:03;;;;;;;5.18;3.90;;;21.40;99.90;;;;;;5081102;28;20073;-73
2023/07/16 00:04:28;;;;;;;12.45;3.88;;;21.40;99.90;;;;;;5084723;28;20020;-74
2023/07/16 00:06:54;;;;;;;5.88;3.42;;;21.40;99.90;;;;;;5081433;28;20040;-73
2023/07/16 00:09:20;;;;;;;7.35;3.90;;;21.40;99.90;;;;;;5082821;28;20122;-73
2023/07/16 00:11:45;;;;;;;7.25;3.50;;;21.40;99.90;;;;;;5087160;28;20078;-74
2023/07/16 00:14:12;;;;;;;7.78;3.30;;;21.40;99.90;;;;;;5081190;28;20070;-73
2023/07/16 00:16:37;;;;;;;8.77;3.60;;;21.40;99.90;;;;;;5083673;28;20029;-73
2023/07/16 00:19:03;;;;;;;7.88;3.35;;;21.30;99.90;;;;;;5085000;28;20074;-73
2023/07/16 00:21:29;;;;;;;7.68;3.28;;;21.30;99.90;;;;;;5081350;28;20032;-73
2023/07/16 00:23:55;;;;;;;8.43;3.75;;;21.30;99.90;;;;;;5081832;28;20023;-73
2023/07/16 00:26:21;;;;;;;7.82;3.63;;;21.30;99.90;;;;;;5082290;28;20065;-73
2023/07/16 00:28:47;;;;;;;7.95;3.80;;;21.30;99.90;;;;;;5085031;28;20115;-73
2023/07/16 00:31:13;;;;;;;8.60;3.53;;;21.30;99.90;;;;;;5087977;28;20412;-73
2023/07/16 00:33:38;;;;;;;8.05;3.53;;;21.20;99.90;;;;;;5079866;28;20529;-74
2023/07/16 00:36:04;;;;;;;13.38;4.47;;;21.20;99.90;;;;;;5084826;28;20438;-73
2023/07/16 00:38:30;;;;;;;8.65;3.50;;;21.10;99.90;;;;;;5083767;28;20025;-73
2023/07/16 00:40:56;;;;;;;12.07;3.75;;;21.10;99.90;;;;;;5083351;28;20032;-74
2023/07/16 00:43:22;;;;;;;9.38;3.95;;;21.10;99.90;;;;;;5086795;28;20116;-73
2023/07/16 00:45:49;;;;;;;7.50;3.22;;;21.10;99.90;;;;;;5086726;28;20123;-73
2023/07/16 00:48:15;;;;;;;4.82;3.00;;;21.00;99.90;;;;;;5083542;28;20028;-73
2023/07/16 00:50:41;;;;;;;12.98;3.80;;;21.00;99.90;;;;;;5083124;28;20024;-73
2023/07/16 00:53:10;;;;;;;11.02;3.38;;;21.00;99.90;;;;;;5081260;28;20077;-74
2023/07/16 00:55:37;;;;;;;10.35;3.40;;;20.90;99.90;;;;;;5082814;28;20029;-73
2023/07/16 00:58:06;;;;;;;8.30;3.63;;;20.90;99.90;;;;;;5084456;28;20025;-73
2023/07/16 01:00:35;;;;;;;12.52;4.32;;;20.80;99.90;;;;;;5087857;28;20045;-74
2023/07/16 01:03:02;;;;;;;11.30;4.28;;;20.80;99.90;;;;;;5078161;28;20026;-74
2023/07/16 01:05:36;;;;;;;11.32;3.97;;;20.80;99.90;;;;;;5090488;28;20064;-74
2023/07/16 01:08:06;;;;;;;11.57;4.15;;;20.80;99.90;;;;;;5083335;28;20025;-74
2023/07/16 01:10:32;;;;;;;5.78;3.30;;;20.70;99.90;;;;;;5076185;28;20086;-74
2023/07/16 01:12:59;;;;;;;7.97;3.85;;;20.70;99.90;;;;;;5078776;28;20024;-74
2023/07/16 01:15:24;;;;;;;8.18;3.63;;;20.70;99.90;;;;;;5080652;28;20460;-73
2023/07/16 01:17:50;;;;;;;9.63;4.10;;;20.70;99.90;;;;;;5092199;28;20027;-73
2023/07/16 01:20:16;;;;;;;7.05;3.78;;;20.60;99.90;;;;;;5084575;28;20020;-73
2023/07/16 01:22:48;;;;;;;9.50;3.70;;;20.60;99.90;;;;;;5079449;28;20055;-74
2023/07/16 01:25:17;;;;;;;12.68;4.05;;;20.50;99.90;;;;;;5082774;28;20016;-73
2023/07/16 01:28:03;;;;;;;9.07;3.95;;;20.50;99.90;;;;;;5078044;28;20040;-74
2023/07/16 01:30:30;;;;;;;10.05;4.07;;;20.50;99.90;;;;;;5083953;28;20040;-73
2023/07/16 01:32:57;;;;;;;6.65;3.83;;;20.50;99.90;;;;;;5087383;28;20472;-73
2023/07/16 01:35:23;;;;;;;8.25;4.03;;;20.50;99.90;;;;;;5089863;28;20024;-73
2023/07/16 01:37:49;;;;;;;7.63;3.80;;;20.50;99.90;;;;;;5078818;28;20054;-73
2023/07/16 01:40:15;;;;;;;10.23;4.25;;;20.40;99.90;;;;;;5079220;28;20020;-74
2023/07/16 01:42:40;;;;;;;7.72;3.97;;;20.40;99.90;;;;;;5086932;28;20012;-73
2023/07/16 01:45:06;;;;;;;11.88;3.90;;;20.40;99.90;;;;;;5085727;28;20392;-73
2023/07/16 01:47:37;;;;;;;6.97;4.00;;;20.30;99.90;;;;;;5079652;28;20032;-74
2023/07/16 01:50:03;;;;;;;7.68;3.92;;;20.30;99.90;;;;;;5086969;28;20036;-73
2023/07/16 01:52:29;;;;;;;7.03;3.90;;;20.30;99.90;;;;;;5084053;28;20028;-73
2023/07/16 01:54:55;;;;;;;9.75;4.32;;;20.30;99.90;;;;;;5082419;28;20504;-74
2023/07/16 01:57:20;;;;;;;14.55;4.28;;;20.20;99.90;;;;;;5086457;28;20028;-74
2023/07/16 01:59:46;;;;;;;7.93;4.13;;;20.20;99.90;;;;;;5079066;28;20040;-73
2023/07/16 02:02:12;;;;;;;8.35;3.85;;;20.10;99.90;;;;;;5090004;28;20043;-73
2023/07/16 02:04:37;;;;;;;12.27;4.70;;;20.10;99.90;;;;;;5078277;28;20548;-73
2023/07/16 02:07:03;;;;;;;10.40;4.18;;;20.10;99.90;;;;;;5079834;28;20028;-73
2023/07/16 02:09:29;;;;;;;8.38;4.28;;;20.10;99.90;;;;;;5083785;28;20137;-73
2023/07/16 02:11:55;;;;;;;11.40;4.28;;;20.00;99.90;;;;;;5084117;28;20027;-74
2023/07/16 02:14:20;;;;;;;10.52;3.95;;;20.00;99.90;;;;;;5081870;28;20031;-73
2023/07/16 02:16:46;;;;;;;9.43;3.92;;;19.90;99.90;;;;;;5073642;28;20117;-73
2023/07/16 02:19:12;;;;;;;10.05;4.13;;;19.90;99.90;;;;;;5083405;28;20059;-73
2023/07/16 02:21:37;;;;;;;6.80;4.30;;;19.70;99.90;;;;;;5085080;28;20024;-73
2023/07/16 02:24:03;;;;;;;8.85;4.10;;;19.70;99.90;;;;;;5082644;28;20024;-74
2023/07/16 02:26:29;;;;;;;12.73;3.88;;;19.70;99.90;;;;;;5084276;28;20527;-73
2023/07/16 02:28:54;;;;;;;7.90;3.20;;;19.70;99.90;;;;;;5088157;28;20052;-73
2023/07/16 02:31:20;;;;;;;8.75;3.78;;;19.60;99.90;;;;;;5078183;28;20096;-74
2023/07/16 02:33:46;;;;;;;6.20;3.30;;;19.50;99.90;;;;;;5078381;28;20405;-73
2023/07/16 02:36:11;;;;;;;11.35;3.60;;;19.50;99.90;;;;;;5080669;28;20064;-73
2023/07/16 02:38:38;;;;;;;8.05;3.63;;;19.30;99.90;;;;;;5083623;28;20361;-73
2023/07/16 02:41:03;;;;;;;10.57;3.70;;;19.40;99.90;;;;;;5078042;28;20028;-73
2023/07/16 02:43:29;;;;;;;12.48;3.80;;;19.40;99.90;;;;;;5079740;28;20020;-73
2023/07/16 02:45:54;;;;;;;10.75;4.15;;;19.30;99.90;;;;;;5079997;28;20521;-73
2023/07/16 02:48:20;;;;;;;11.43;3.83;;;19.30;99.90;;;;;;5080173;28;20091;-73
2023/07/16 02:50:46;;;;;;;6.03;3.17;;;19.30;99.90;;;;;;5082561;28;20507;-72
2023/07/16 02:53:11;;;;;;;9.73;4.07;;;19.10;99.90;;;;;;5082866;28;20017;-72
2023/07/16 02:55:37;;;;;;;14.82;4.40;;;19.20;99.90;;;;;;5083992;28;20024;-73
2023/07/16 02:58:04;;;;;;;9.93;3.55;;;19.20;99.90;;;;;;5075970;28;20028;-73
2023/07/16 03:00:33;;;;;;;8.32;4.53;;;19.20;99.90;;;;;;5085853;28;20031;-73
2023/07/16 03:02:59;;;;;;;9.52;3.95;;;19.30;99.90;;;;;;5080442;28;20103;-73
2023/07/16 03:05:26;;;;;;;11.75;4.40;;;19.20;99.90;;;;;;5080157;28;20024;-73
2023/07/16 03:07:52;;;;;;;7.45;3.45;;;19.20;99.90;;;;;;5083962;28;20019;-73
2023/07/16 03:10:17;;;;;;;10.02;3.83;;;19.20;99.90;;;;;;5076317;28;20032;-73
2023/07/16 03:12:43;;;;;;;12.55;4.30;;;19.20;99.90;;;;;;5079741;28;20017;-73
2023/07/16 03:15:09;;;;;;;10.25;3.88;;;19.10;99.90;;;;;;5080469;28;20384;-73
2023/07/16 03:17:35;;;;;;;8.50;4.13;;;19.10;99.90;;;;;;5079022;28;20032;-73
2023/07/16 03:20:01;;;;;;;10.60;3.92;;;18.90;99.90;;;;;;5077340;28;20519;-73
2023/07/16 03:22:26;;;;;;;9.57;3.78;;;19.00;99.90;;;;;;5086557;28;20024;-73
2023/07/16 03:24:52;;;;;;;8.98;4.47;;;18.90;99.90;;;;;;5083949;28;20020;-72
2023/07/16 03:27:18;;;;;;;10.68;4.15;;;18.80;99.90;;;;;;5083268;28;20496;-73
2023/07/16 03:29:43;;;;;;;12.00;4.60;;;18.70;99.90;;;;;;5079583;28;20085;-73
2023/07/16 03:32:09;;;;;;;7.57;3.83;;;18.70;99.90;;;;;;5086269;28;20020;-73
2023/07/16 03:34:35;;;;;;;6.95;3.58;;;18.70;99.90;;;;;;5082173;28;20024;-74
2023/07/16 03:37:00;;;;;;;9.52;4.32;;;18.70;99.90;;;;;;5086365;28;20020;-73
2023/07/16 03:39:26;;;;;;;14.38;4.25;;;18.70;99.90;;;;;;5078933;28;20503;-73
2023/07/16 03:41:52;;;;;;;11.63;4.20;;;18.70;99.90;;;;;;5084385;28;20023;-73
2023/07/16 03:44:17;;;;;;;13.93;4.50;;;18.60;99.90;;;;;;5084439;28;20103;-73
2023/07/16 03:46:43;;;;;;;8.57;4.20;;;18.50;99.90;;;;;;5084178;28;20478;-73
2023/07/16 03:49:09;;;;;;;15.52;5.53;;;18.50;99.90;;;;;;5086102;28;20596;-73
2023/07/16 03:51:34;;;;;;;14.80;5.43;;;18.50;99.90;;;;;;5088819;28;20074;-72
2023/07/16 03:54:00;;;;;;;18.02;5.93;;;18.50;99.90;;;;;;5084609;28;20068;-72
2023/07/16 03:56:26;;;;;;;15.85;5.38;;;18.50;99.90;;;;;;5080805;28;20107;-72
2023/07/16 03:58:51;;;;;;;12.23;5.50;;;18.40;99.90;;;;;;5077389;28;20374;-73
2023/07/16 04:01:17;;;;;;;11.50;5.20;;;18.20;99.90;;;;;;5086076;28;20350;-73
2023/07/16 04:03:43;;;;;;;12.57;5.40;;;18.30;99.90;;;;;;5082246;28;20054;-73
2023/07/16 04:06:09;;;;;;;15.65;5.75;;;18.30;99.90;;;;;;5083544;28;20114;-73
2023/07/16 04:08:36;;;;;;;15.05;5.03;;;18.20;99.90;;;;;;5077886;28;20034;-73
2023/07/16 04:11:03;;;;;;;12.15;5.55;;;18.10;99.90;;;;;;5081949;28;20035;-74
2023/07/16 04:13:29;;;;;;;14.18;5.75;;;18.20;99.90;;;;;;5084612;28;20035;-73
2023/07/16 04:15:57;;;;;;;13.50;5.43;;;18.20;99.90;;;;;;5078805;28;20400;-73
2023/07/16 04:18:23;;;;;;;17.00;5.05;;;18.10;99.90;;;;;;5084483;28;20373;-72
2023/07/16 04:20:49;;;;;;;14.88;5.65;;;18.10;99.90;;;;;;5082619;28;20214;-72
2023/07/16 04:23:15;;;;;;;17.50;5.57;;;18.10;99.90;;;;;;5083676;28;20092;-73
2023/07/16 04:25:40;;;;;;;15.02;6.20;;;18.10;99.90;;;;;;5085378;28;20025;-72
2023/07/16 04:28:06;;;;;;;12.90;6.00;;;18.10;99.90;;;;;;5082297;28;20027;-72
2023/07/16 04:30:32;;;;;;;16.85;5.63;;;18.10;99.90;;;;;;5081127;28;20055;-73
2023/07/16 04:32:57;;;;;;;12.93;6.18;;;17.90;99.90;;;;;;5076573;28;20381;-72
2023/07/16 04:35:23;;;;;;;15.75;5.75;;;18.00;99.90;;;;;;5082324;28;20024;-72
2023/07/16 04:37:49;;;;;;;16.15;5.93;;;17.90;99.90;;;;;;5079636;28;20024;-73
2023/07/16 04:40:15;;;;;;;15.85;5.75;;;17.80;99.90;;;;;;5082203;28;20035;-73
2023/07/16 04:42:40;;;;;;;14.25;5.75;;;17.80;99.90;;;;;;5081942;28;20032;-73
2023/07/16 04:45:06;;;;;;;12.23;4.90;;;17.80;99.90;;;;;;5085340;28;20019;-72
2023/07/16 04:47:32;;;;;;;12.55;5.85;;;17.80;99.90;;;;;;5085329;28;20024;-73
2023/07/16 04:49:59;;;;;;;14.68;5.65;;;17.80;99.90;;;;;;5084936;28;20033;-72
2023/07/16 04:52:24;;;;;;;12.43;5.75;;;17.70;99.90;;;;;;5078036;28;20059;-73
2023/07/16 04:54:50;;;;;;;18.88;6.35;;;17.70;99.90;;;;;;5082422;28;20504;-72
2023/07/16 04:57:15;;;;;;;16.42;6.30;;;17.70;99.90;;;;;;5082937;28;20577;-72
2023/07/16 04:59:41;;;;;;;19.35;6.50;;;17.60;99.90;;;;;;5083799;28;20078;-72
2023/07/16 05:02:07;;;;;;;16.60;6.85;;;17.70;99.90;;;;;;5082436;28;20058;-73
2023/07/16 05:04:36;;;;;;;11.95;6.10;;;17.70;99.90;;;;;;5075308;28;20052;-72
2023/07/16 05:07:02;;;;;;;18.77;6.68;;;17.70;99.90;;;;;;5079514;28;20034;-72
2023/07/16 05:09:28;;;;;;;15.68;6.85;;;17.80;99.90;;;;;;5079764;28;20035;-72
2023/07/16 05:11:54;;;;;;;15.20;6.32;;;17.70;99.90;;;;;;5081093;28;20020;-72
2023/07/16 05:14:20;;;;;;;13.30;6.15;;;17.70;99.90;;;;;;5085891;28;20024;-72
2023/07/16 05:16:46;;;;;;;18.05;6.25;;;17.60;99.90;;;;;;5085125;28;20435;-72
2023/07/16 05:19:11;;;;;;;16.27;6.95;;;17.70;99.90;;;;;;5082471;28;21992;-72
2023/07/16 05:21:37;;;;;;;18.27;7.57;;;17.70;99.90;;;;;;5084348;28;20029;-71
2023/07/16 05:24:04;;;;;;;16.13;7.63;;;17.80;99.90;;;;;;5079269;28;20020;-72
2023/07/16 05:26:30;;;;;;;14.18;7.28;;;17.80;99.90;;;;;;5082886;28;20086;-72
2023/07/16 05:28:55;;;;;;;17.33;6.90;;;17.80;99.90;;;;;;5085064;28;20060;-72
2023/07/16 05:31:21;;;;;;;17.88;7.20;;;17.70;99.90;;;;;;5078099;28;20028;-72
2023/07/16 05:33:47;;;;;;;16.35;6.28;;;17.60;99.90;;;;;;5083705;28;20047;-71
2023/07/16 05:36:12;;;;;;;15.07;6.60;;;17.70;99.90;;;;;;5079237;28;20063;-71
2023/07/16 05:38:38;;;;;;;17.52;6.85;;;17.70;99.90;;;;;;5081282;28;20024;-71
2023/07/16 05:41:04;;;;;;;22.48;6.72;;;17.60;99.90;;;;;;5084353;28;20031;-71
2023/07/16 05:43:31;;;;;;;13.43;6.68;;;17.60;99.90;;;;;;5078719;28;20105;-71
2023/07/16 05:45:56;;;;;;;15.85;6.90;;;17.70;99.90;;;;;;5086285;28;20535;-71
2023/07/16 05:48:23;;;;;;;12.00;7.10;;;17.70;99.90;;;;;;5083839;28;20165;-71
2023/07/16 05:50:49;;;;;;;15.73;6.63;;;17.70;99.90;;;;;;5089764;28;20706;-71
2023/07/16 05:53:14;;;;;;;16.10;7.07;;;17.70;99.90;;;;;;5077831;28;20028;-70
2023/07/16 05:55:40;;;;;;;15.40;7.25;;;17.70;99.90;;;;;;5082998;28;20021;-70
2023/07/16 05:58:06;;;;;;;19.42;7.82;;;17.80;99.90;;;;;;5080618;28;20077;-71
2023/07/16 06:00:31;;;;;;;15.85;6.60;;;17.80;99.90;;;;;;5080105;28;20028;-71
2023/07/16 06:02:57;;;;;;;16.48;7.00;;;17.70;99.90;;;;;;5076737;28;20116;-72
2023/07/16 06:05:24;;;;;;;20.42;6.85;;;17.70;99.90;;;;;;5081232;28;20025;-72
2023/07/16 06:07:50;;;;;;;21.00;7.68;;;17.80;99.90;;;;;;5086394;28;20036;-71
2023/07/16 06:10:16;;;;;;;18.65;7.93;;;17.80;99.90;;;;;;5079063;28;20079;-71
2023/07/16 06:12:41;;;;;;;19.80;7.82;;;17.90;99.90;;;;;;5079262;28;20025;-71
2023/07/16 06:15:08;;;;;;;11.20;7.78;;;17.90;99.90;;;;;;5078827;28;20059;-71
2023/07/16 06:17:33;;;;;;;22.83;7.63;;;17.90;99.90;;;;;;5081777;28;20065;-71
2023/07/16 06:19:59;;;;;;;19.35;7.72;;;17.90;99.90;;;;;;5078838;28;20032;-71
2023/07/16 06:22:25;;;;;;;13.73;7.25;;;17.90;99.90;;;;;;5079746;28;20024;-71
2023/07/16 06:24:50;;;;;;;20.83;8.55;;;17.90;99.90;;;;;;5084045;28;20414;-71
2023/07/16 06:27:16;;;;;;;18.90;8.35;;;17.90;99.90;;;;;;5083870;28;20601;-71
2023/07/16 06:29:41;;;;;;;19.25;9.13;;;18.00;99.90;;;;;;5082493;28;20040;-71
2023/07/16 06:32:08;;;;;;;16.60;8.27;;;18.00;99.90;;;;;;5081893;28;20024;-71
2023/07/16 06:34:34;;;;;;;20.52;8.75;;;18.00;99.90;;;;;;5083202;28;20376;-71
2023/07/16 06:36:59;;;;;;;19.67;8.55;;;18.10;99.90;;;;;;5080633;28;20100;-71
2023/07/16 06:39:25;;;;;;;24.63;9.23;;;18.10;99.90;;;;;;5079763;28;20103;-71
2023/07/16 06:41:51;;;;;;;17.60;8.50;;;18.30;99.90;;;;;;5077038;28;20031;-71
2023/07/16 06:44:17;;;;;;;19.58;8.70;;;18.30;99.90;;;;;;5081998;28;20027;-70
2023/07/16 06:46:42;;;;;;;15.70;9.30;;;18.30;99.90;;;;;;5079695;28;20032;-70
2023/07/16 06:49:08;;;;;;;18.90;9.00;;;18.30;99.90;;;;;;5081796;28;20063;-71
2023/07/16 06:51:34;;;;;;;21.52;10.07;;;18.30;99.90;;;;;;5083592;28;20043;-71
2023/07/16 06:54:00;;;;;;;21.92;9.40;;;18.30;99.90;;;;;;5079497;28;20035;-71
2023/07/16 06:56:25;;;;;;;18.58;8.85;;;18.40;99.90;;;;;;5077016;28;20059;-71
2023/07/16 06:58:51;;;;;;;16.83;9.13;;;18.50;99.90;;;;;;5082578;28;20076;-71
2023/07/16 07:01:17;;;;;;;15.13;9.18;;;18.60;99.90;;;;;;5076242;28;20043;-71
2023/07/16 07:03:42;;;;;;;22.38;9.75;;;18.80;99.90;;;;;;5082999;28;20153;-71
2023/07/16 07:06:10;;;;;;;21.55;8.52;;;18.80;99.90;;;;;;5077067;28;20634;-71
2023/07/16 07:08:36;;;;;;;22.85;9.18;;;18.90;99.90;;;;;;5079314;28;20024;-71
2023/07/16 07:11:03;;;;;;;18.80;9.10;;;19.10;99.90;;;;;;5085116;28;20036;-71
2023/07/16 07:13:29;;;;;;;20.45;8.90;;;19.10;99.90;;;;;;5081941;28;20157;-71
2023/07/16 07:15:56;;;;;;;15.15;7.82;;;19.20;99.90;;;;;;5086137;28;20024;-70
2023/07/16 07:18:22;;;;;;;17.15;8.90;;;19.30;99.90;;;;;;5075087;28;20021;-70
2023/07/16 07:20:47;;;;;;;18.55;8.75;;;19.40;99.90;;;;;;5074437;28;20034;-70
2023/07/16 07:23:13;;;;;;;20.63;8.95;;;19.40;99.90;;;;;;5081500;28;20020;-71
2023/07/16 07:25:39;;;;;;;16.02;8.57;;;19.50;99.90;;;;;;5076011;28;20033;-71
2023/07/16 07:28:05;;;;;;;14.65;8.93;;;19.60;99.90;;;;;;5075361;28;20016;-70
2023/07/16 07:30:30;;;;;;;15.05;8.05;;;19.70;99.90;;;;;;5079214;28;20060;-70
2023/07/16 07:32:56;;;;;;;15.40;7.97;;;19.80;99.90;;;;;;5085964;28;20056;-70
2023/07/16 07:35:22;;;;;;;16.38;8.45;;;19.90;99.90;;;;;;5079579;28;20025;-70
2023/07/16 07:37:47;;;;;;;19.13;8.32;;;20.00;99.90;;;;;;5079100;28;20492;-70
2023/07/16 07:40:14;;;;;;;15.32;8.68;;;20.00;99.90;;;;;;5084032;28;20032;-70
2023/07/16 07:42:39;;;;;;;19.48;8.48;;;20.10;99.90;;;;;;5077690;28;20059;-70
2023/07/16 07:45:06;;;;;;;25.52;9.15;;;20.20;99.90;;;;;;5080219;28;20052;-70
2023/07/16 07:47:31;;;;;;;18.13;8.25;;;20.20;99.90;;;;;;5081357;28;20127;-69
2023/07/16 07:49:57;;;;;;;18.90;8.85;;;20.30;99.90;;;;;;5076707;28;20137;-71
2023/07/16 07:52:23;;;;;;;17.80;8.10;;;20.30;99.90;;;;;;5074914;28;20035;-70
2023/07/16 07:54:48;;;;;;;20.33;8.50;;;20.20;99.90;;;;;;5079962;28;20701;-71
2023/07/16 07:57:14;;;;;;;18.75;7.63;;;20.30;99.90;;;;;;5080142;28;20089;-70
2023/07/16 07:59:40;;;;;;;19.45;8.77;;;20.30;99.90;;;;;;5077868;28;20501;-70
2023/07/16 08:02:06;;;;;;;17.10;8.70;;;20.30;99.90;;;;;;5081615;28;20027;-70
2023/07/16 08:04:34;;;;;;;13.80;7.72;;;20.60;99.90;;;;;;5074794;28;20536;-71
2023/07/16 08:07:00;;;;;;;13.73;7.82;;;20.70;99.90;;;;;;5079508;28;20023;-71
2023/07/16 08:09:26;;;;;;;18.55;7.82;;;20.80;99.90;;;;;;5079117;28;20052;-71
2023/07/16 08:11:52;;;;;;;23.23;7.85;;;20.80;99.90;;;;;;5082412;28;20027;-70
2023/07/16 08:14:18;;;;;;;12.20;7.38;;;20.70;99.90;;;;;;5079388;28;20024;-70
2023/07/16 08:16:43;;;;;;;19.50;7.78;;;20.90;99.90;;;;;;5078727;28;20016;-71
2023/07/16 08:19:10;;;;;;;14.45;8.23;;;21.00;99.90;;;;;;5082038;28;20103;-71
2023/07/16 08:21:37;;;;;;;16.27;7.18;;;21.00;99.90;;;;;;5080238;28;20040;-70
2023/07/16 08:24:07;;;;;;;14.65;6.78;;;21.20;99.90;;;;;;5084097;28;20016;-69
2023/07/16 08:26:32;;;;;;;12.23;6.82;;;21.20;99.90;;;;;;5078904;28;20020;-70
2023/07/16 08:28:59;;;;;;;12.80;6.95;;;21.40;99.90;;;;;;5081906;28;20101;-70
2023/07/16 08:31:25;;;;;;;16.85;7.38;;;21.40;99.90;;;;;;5080338;28;20038;-71
2023/07/16 08:33:50;;;;;;;14.73;6.95;;;21.40;99.90;;;;;;5083886;28;20020;-70
2023/07/16 08:36:16;;;;;;;12.65;6.45;;;21.60;99.90;;;;;;5081072;28;20077;-70
2023/07/16 08:38:42;;;;;;;14.82;6.68;;;21.70;99.90;;;;;;5081047;28;20027;-71
2023/07/16 08:41:07;;;;;;;12.73;6.45;;;21.90;99.90;;;;;;5081535;28;20170;-71
2023/07/16 08:43:34;;;;;;;9.77;6.30;;;22.00;99.90;;;;;;5083867;28;20028;-70
2023/07/16 08:46:01;;;;;;;9.23;6.10;;;22.10;99.90;;;;;;5086090;28;20027;-71
2023/07/16 08:48:28;;;;;;;13.75;6.20;;;22.10;99.90;;;;;;5080736;28;20350;-71
2023/07/16 08:50:57;;;;;;;14.15;6.68;;;22.20;99.90;;;;;;5078881;28;20554;-71
2023/07/16 08:53:22;;;;;;;16.48;6.32;;;22.30;99.90;;;;;;5084310;28;20027;-70
2023/07/16 08:55:48;;;;;;;15.30;6.40;;;22.60;99.90;;;;;;5079687;28;20035;-71
2023/07/16 08:58:14;;;;;;;15.65;6.85;;;22.60;99.90;;;;;;5083196;28;20055;-71
2023/07/16 09:00:50;;;;;;;14.55;6.57;;;22.80;99.90;;;;;;5083502;28;20024;-72
2023/07/16 09:03:17;;;;;;;12.40;6.22;;;22.80;99.90;;;;;;5089946;28;20031;-71
2023/07/16 09:05:44;;;;;;;18.75;6.65;;;22.80;99.90;;;;;;5082037;28;20019;-70
2023/07/16 09:08:10;;;;;;;10.35;6.40;;;22.80;99.90;;;;;;5082502;28;20630;-71
2023/07/16 09:10:36;;;;;;;15.32;6.45;;;22.90;99.90;;;;;;5079330;28;20040;-71
2023/07/16 09:13:02;;;;;;;10.20;6.18;;;22.90;99.90;;;;;;5077087;28;20059;-71
2023/07/16 09:15:29;;;;;;;9.38;6.05;;;22.90;99.90;;;;;;5081175;28;20055;-70
2023/07/16 09:17:55;;;;;;;11.02;6.05;;;23.10;99.90;;;;;;5083195;28;20021;-71
2023/07/16 09:20:23;;;;;;;12.30;5.40;;;23.30;99.90;;;;;;5085125;28;20028;-71
2023/07/16 09:22:49;;;;;;;10.32;5.82;;;23.40;99.90;;;;;;5077867;28;20028;-70
2023/07/16 09:25:15;;;;;;;9.00;5.50;;;23.60;99.90;;;;;;5081892;28;20024;-70
2023/07/16 09:27:41;;;;;;;9.82;5.55;;;23.60;99.90;;;;;;5083028;28;20024;-71
2023/07/16 09:30:14;;;;;;;7.35;4.90;;;23.40;99.90;;;;;;5082188;28;20036;-71
2023/07/16 09:32:40;;;;;;;13.23;5.50;;;23.30;99.90;;;;;;5085466;28;20024;-71
2023/07/16 09:35:15;;;;;;;11.68;5.55;;;23.40;99.90;;;;;;5077571;28;20035;-71
2023/07/16 09:37:42;;;;;;;13.02;5.00;;;23.30;99.90;;;;;;5081107;28;20021;-71
2023/07/16 09:40:10;;;;;;;8.55;4.63;;;23.40;99.90;;;;;;5077986;28;20028;-71
2023/07/16 09:42:43;;;;;;;10.63;4.57;;;23.50;99.90;;;;;;5080708;28;20104;-71
2023/07/16 09:45:17;;;;;;;6.65;3.63;;;23.60;99.90;;;;;;5085649;28;20026;-71
2023/07/16 09:47:43;;;;;;;12.13;4.57;;;23.60;99.90;;;;;;5086062;28;20012;-71
2023/07/16 09:50:09;;;;;;;10.07;4.78;;;23.40;99.90;;;;;;5077853;28;20089;-71
2023/07/16 09:52:35;;;;;;;11.15;5.18;;;23.30;99.90;;;;;;5074680;28;20017;-70
2023/07/16 09:55:04;;;;;;;5.85;4.10;;;23.10;99.90;;;;;;5076418;28;20035;-70
2023/07/16 09:57:35;;;;;;;11.48;5.18;;;23.40;99.90;;;;;;5084086;28;20024;-71
2023/07/16 10:00:06;;;;;;;8.52;5.55;;;23.60;99.90;;;;;;5076045;28;20036;-70
2023/07/16 10:02:37;;;;;;;8.23;5.38;;;23.50;99.90;;;;;;5081572;28;20016;-71
2023/07/16 10:05:19;;;;;;;9.52;4.60;;;23.40;99.90;;;;;;5080695;28;20040;-71
2023/07/16 10:07:52;;;;;;;7.90;4.28;;;23.20;99.90;;;;;;5084130;28;20024;-71
2023/07/16 10:10:18;;;;;;;9.50;4.68;;;23.20;99.90;;;;;;5078163;28;20078;-70
2023/07/16 10:13:01;;;;;;;7.43;4.90;;;23.10;99.90;;;;;;5083338;28;20050;-71
2023/07/16 10:15:29;;;;;;;10.32;4.78;;;23.00;99.90;;;;;;5084668;28;20055;-71
2023/07/16 10:17:55;;;;;;;8.25;4.95;;;23.20;99.90;;;;;;5083670;28;20017;-71
2023/07/16 10:20:42;;;;;;;8.70;4.20;;;22.90;99.90;;;;;;5082284;28;20031;-72
2023/07/16 10:23:16;;;;;;;7.93;4.78;;;22.90;99.90;;;;;;5078653;28;20043;-72
2023/07/16 10:25:58;;;;;;;11.43;4.85;;;23.20;99.90;;;;;;5084045;28;20103;-72
2023/07/16 10:28:24;;;;;;;9.07;4.78;;;23.40;99.90;;;;;;5081268;28;20077;-73
2023/07/16 10:30:50;;;;;;;14.68;4.45;;;23.50;99.90;;;;;;5082654;28;20048;-72
2023/07/16 10:33:16;;;;;;;41.53;7.30;;;23.60;99.90;;;;;;5074787;28;20488;-74
2023/07/16 10:35:44;;;;;;;38.03;5.65;;;23.60;99.90;;;;;;5080710;28;20027;-76
2023/07/16 10:38:11;;;;;;;7.18;4.25;;;23.60;99.90;;;;;;5076609;28;20016;-75
2023/07/16 10:40:46;;;;;;;7.88;4.18;;;23.60;99.90;;;;;;5086204;28;20027;-74
2023/07/16 10:43:12;;;;;;;9.35;4.00;;;23.30;99.90;;;;;;5081388;28;20024;-71
2023/07/16 10:45:39;;;;;;;19.52;4.75;;;23.20;99.90;;;;;;5079778;28;20036;-71
2023/07/16 10:48:05;;;;;;;17.42;4.78;;;23.20;99.90;;;;;;5086586;28;20027;-72
2023/07/16 10:50:34;;;;;;;9.50;4.50;;;23.10;99.90;;;;;;5082389;28;20396;-72
2023/07/16 10:53:00;;;;;;;8.90;4.25;;;23.10;99.90;;;;;;5081575;28;20020;-74
2023/07/16 10:55:28;;;;;;;13.45;4.70;;;23.20;99.90;;;;;;5083926;28;20472;-73
2023/07/16 10:57:55;;;;;;;111.95;9.93;;;23.30;99.90;;;;;;5082602;28;20546;-74
2023/07/16 11:00:22;;;;;;;11.65;4.70;;;23.40;99.90;;;;;;5079797;28;20031;-73
2023/07/16 11:02:50;;;;;;;26.98;5.75;;;23.40;99.90;;;;;;5077491;28;20023;-73
2023/07/16 11:05:18;;;;;;;80.30;9.23;;;23.30;99.90;;;;;;5078804;28;20112;-72
2023/07/16 11:07:45;;;;;;;10.65;4.72;;;23.00;99.90;;;;;;5082421;28;20035;-72
2023/07/16 11:10:11;;;;;;;13.10;4.30;;;23.00;99.90;;;;;;5077559;28;20041;-73
2023/07/16 11:12:37;;;;;;;12.40;4.47;;;23.10;99.90;;;;;;5081395;28;20138;-72
2023/07/16 11:15:03;;;;;;;13.68;5.43;;;23.10;99.90;;;;;;5076712;28;20027;-75
2023/07/16 11:17:29;;;;;;;9.77;4.70;;;23.10;99.90;;;;;;5080890;28;20008;-75
2023/07/16 11:19:55;;;;;;;10.25;4.47;;;23.10;99.90;;;;;;5081037;28;20503;-74
2023/07/16 11:22:29;;;;;;;9.35;5.22;;;23.20;99.90;;;;;;5078462;28;20101;-74
2023/07/16 11:24:55;;;;;;;7.40;4.70;;;23.10;99.90;;;;;;5075712;28;20043;-74
2023/07/16 11:27:26;;;;;;;7.28;4.60;;;23.20;99.90;;;;;;5077799;28;20021;-75
2023/07/16 11:29:56;;;;;;;7.40;4.10;;;23.20;99.90;;;;;;5083247;28;20493;-72
2023/07/16 11:32:43;;;;;;;13.13;4.00;;;23.20;99.90;;;;;;5082463;28;20084;-73
2023/07/16 11:35:16;;;;;;;8.80;4.43;;;23.10;99.90;;;;;;5074151;28;20099;-73
2023/07/16 11:37:42;;;;;;;8.30;4.35;;;23.10;99.90;;;;;;5080924;28;20024;-73
2023/07/16 11:40:09;;;;;;;6.72;4.10;;;23.20;99.90;;;;;;5086577;28;20119;-73
2023/07/16 11:42:39;;;;;;;10.02;4.63;;;23.00;99.90;;;;;;5081689;28;20034;-73
2023/07/16 11:45:14;;;;;;;5.10;4.18;;;23.10;99.90;;;;;;5079232;28;20103;-73
2023/07/16 11:47:40;;;;;;;9.02;4.28;;;22.90;99.90;;;;;;5077296;28;20567;-73
2023/07/16 11:50:07;;;;;;;6.28;4.57;;;23.00;99.90;;;;;;5081780;28;20042;-73
2023/07/16 11:52:32;;;;;;;9.45;4.22;;;23.00;99.90;;;;;;5082496;28;20035;-73
2023/07/16 11:55:05;;;;;;;9.90;4.32;;;22.90;99.90;;;;;;5085529;28;20095;-71
2023/07/16 11:57:30;;;;;;;11.30;4.30;;;22.90;99.90;;;;;;5084250;28;20031;-72
2023/07/16 11:59:56;;;;;;;12.65;5.30;;;22.80;99.90;;;;;;5088021;28;20134;-71
2023/07/16 12:02:22;;;;;;;10.15;4.97;;;22.80;99.90;;;;;;5081538;28;20032;-73
2023/07/16 12:04:48;;;;;;;12.60;5.15;;;22.90;99.90;;;;;;5085281;28;20025;-74
2023/07/16 12:07:14;;;;;;;8.10;4.78;;;22.90;99.90;;;;;;5080235;28;20040;-74
2023/07/16 12:09:40;;;;;;;10.07;5.15;;;22.90;99.90;;;;;;5084896;28;20044;-73
2023/07/16 12:12:07;;;;;;;8.70;5.18;;;23.00;99.90;;;;;;5078139;28;20518;-74
2023/07/16 12:14:33;;;;;;;9.77;5.00;;;23.20;99.90;;;;;;5083169;28;20039;-74
2023/07/16 12:16:58;;;;;;;8.82;5.05;;;23.30;99.90;;;;;;5084288;28;20016;-74
2023/07/16 12:19:24;;;;;;;11.95;5.53;;;23.40;99.90;;;;;;5080467;28;20032;-75
2023/07/16 12:21:50;;;;;;;10.80;5.13;;;23.50;99.90;;;;;;5082984;28;20024;-74
2023/07/16 12:24:16;;;;;;;8.93;4.72;;;23.50;99.90;;;;;;5085937;28;20021;-74
2023/07/16 12:26:42;;;;;;;8.35;4.40;;;23.70;99.90;;;;;;5079037;28;20012;-74
2023/07/16 12:29:08;;;;;;;8.48;4.88;;;23.90;99.90;;;;;;5081085;28;20380;-75
2023/07/16 12:31:34;;;;;;;11.50;5.18;;;23.90;99.90;;;;;;5081326;28;20485;-74
2023/07/16 12:34:04;;;;;;;11.48;5.03;;;24.30;99.90;;;;;;5085113;28;20066;-73
2023/07/16 12:36:29;;;;;;;8.25;4.93;;;24.40;99.90;;;;;;5084762;28;20060;-74
2023/07/16 12:38:55;;;;;;;8.55;5.20;;;24.50;99.90;;;;;;5082211;28;20051;-73